createdAt,value
2023-01-13T00:01:24.534Z,99.50
2023-01-13T00:03:52.542Z,99.90
2023-01-13T00:06:25.858Z,99.60
2023-01-13T00:08:53.794Z,99.90
2023-01-13T00:11:22.062Z,99.90
2023-01-13T00:13:49.480Z,99.80
2023-01-13T00:16:19.372Z,99.40
2023-01-13T00:18:47.755Z,99.90
2023-01-13T00:21:16.328Z,99.30
2023-01-13T00:23:44.674Z,99.60
2023-01-13T00:26:15.407Z,99.40
2023-01-13T00:28:42.866Z,99.80
2023-01-13T00:31:18.170Z,99.70
2023-01-13T00:33:46.058Z,99.90
2023-01-13T00:36:15.601Z,99.50
2023-01-13T00:38:43.792Z,99.70
2023-01-13T00:41:13.635Z,99.50
2023-01-13T00:43:41.374Z,99.90
2023-01-13T00:46:10.919Z,99.50
2023-01-13T00:48:38.914Z,99.90
2023-01-13T00:51:15.685Z,99.70
2023-01-13T00:53:45.790Z,99.90
2023-01-13T00:56:38.401Z,99.90
2023-01-13T00:59:10.394Z,99.90
2023-01-13T01:01:38.212Z,99.90
2023-01-13T01:04:06.367Z,99.90
2023-01-13T01:06:33.879Z,99.90
2023-01-13T01:09:01.303Z,99.70
2023-01-13T01:11:30.846Z,99.70
2023-01-13T01:14:00.736Z,99.80
2023-01-13T01:16:29.897Z,99.90
2023-01-13T01:18:57.794Z,99.80
2023-01-13T01:21:26.872Z,99.80
2023-01-13T01:23:55.646Z,99.70
2023-01-13T01:26:25.911Z,99.70
2023-01-13T01:28:53.747Z,99.90
2023-01-13T01:31:26.594Z,99.70
2023-01-13T01:33:55.127Z,99.70
2023-01-13T01:36:26.721Z,99.90
2023-01-13T01:38:59.552Z,99.90
2023-01-13T01:41:30.062Z,99.90
2023-01-13T01:44:06.892Z,99.90
2023-01-13T01:46:36.370Z,99.90
2023-01-13T01:49:31.518Z,99.90
2023-01-13T01:52:16.371Z,99.90
2023-01-13T01:54:46.487Z,99.90
2023-01-13T01:57:18.920Z,99.40
2023-01-13T01:59:49.506Z,99.90
2023-01-13T02:02:17.414Z,99.90
2023-01-13T02:04:51.551Z,99.90
2023-01-13T02:07:22.729Z,99.90
2023-01-13T02:09:51.708Z,99.90
2023-01-13T02:12:31.989Z,99.90
2023-01-13T02:15:09.059Z,99.90
2023-01-13T02:18:21.204Z,99.90
2023-01-13T02:21:26.195Z,99.90
2023-01-13T02:24:34.553Z,99.90
2023-01-13T02:27:32.956Z,99.90
2023-01-13T02:30:28.295Z,99.90
2023-01-13T02:33:01.653Z,99.90
2023-01-13T02:35:34.916Z,99.90
2023-01-13T02:38:03.537Z,99.80
2023-01-13T02:40:48.921Z,99.90
2023-01-13T02:43:54.792Z,99.40
2023-01-13T02:46:29.885Z,99.90
2023-01-13T02:49:05.235Z,99.90
2023-01-13T02:51:33.494Z,99.90
2023-01-13T02:54:14.480Z,99.60
2023-01-13T02:56:45.922Z,99.90
2023-01-13T02:59:14.137Z,99.90
2023-01-13T03:01:42.880Z,99.80
2023-01-13T03:04:15.393Z,99.90
2023-01-13T03:07:01.453Z,99.90
2023-01-13T03:09:38.462Z,99.90
2023-01-13T03:12:21.120Z,99.90
2023-01-13T03:14:57.646Z,99.90
2023-01-13T03:17:40.223Z,99.90
2023-01-13T03:20:18.567Z,98.80
2023-01-13T03:23:10.766Z,99.60
2023-01-13T03:25:45.697Z,99.70
2023-01-13T03:28:23.539Z,99.90
2023-01-13T03:30:56.472Z,99.90
2023-01-13T03:33:35.067Z,99.90
2023-01-13T03:36:06.240Z,99.90
2023-01-13T03:38:43.787Z,99.90
2023-01-13T03:41:26.452Z,99.70
2023-01-13T03:44:24.179Z,99.80
2023-01-13T03:47:05.622Z,99.90
2023-01-13T03:49:42.033Z,99.90
2023-01-13T03:52:17.128Z,99.90
2023-01-13T03:54:53.469Z,99.90
2023-01-13T03:57:26.708Z,99.60
2023-01-13T03:59:57.742Z,99.90
2023-01-13T04:02:53.705Z,99.90
2023-01-13T04:05:21.927Z,99.70
2023-01-13T04:07:59.084Z,99.30
2023-01-13T04:10:47.808Z,99.50
2023-01-13T04:13:21.024Z,99.60
2023-01-13T04:15:49.997Z,99.70
2023-01-13T04:18:31.063Z,99.40
2023-01-13T04:21:01.286Z,99.90
2023-01-13T04:23:29.142Z,99.50
2023-01-13T04:25:57.269Z,99.60
2023-01-13T04:28:29.988Z,99.30
2023-01-13T04:30:57.833Z,99.70
2023-01-13T04:33:25.354Z,98.80
2023-01-13T04:35:52.792Z,98.80
2023-01-13T04:38:21.896Z,98.90
2023-01-13T04:40:49.517Z,98.80
2023-01-13T04:43:17.294Z,98.30
2023-01-13T04:45:44.796Z,98.50
2023-01-13T04:48:12.896Z,98.40
2023-01-13T04:50:40.385Z,98.30
2023-01-13T04:53:07.849Z,98.50
2023-01-13T04:55:35.417Z,98.60
2023-01-13T04:58:08.331Z,98.60
2023-01-13T05:00:36.364Z,99.30
2023-01-13T05:03:04.427Z,98.40
2023-01-13T05:05:32.140Z,98.40
2023-01-13T05:07:59.803Z,98.90
2023-01-13T05:10:28.043Z,98.60
2023-01-13T05:13:14.017Z,98.90
2023-01-13T05:16:01.185Z,98.60
2023-01-13T05:18:30.663Z,99.00
2023-01-13T05:21:01.002Z,98.80
2023-01-13T05:23:47.884Z,98.30
2023-01-13T05:26:15.447Z,98.00
2023-01-13T05:28:43.228Z,98.70
2023-01-13T05:31:12.326Z,98.90
2023-01-13T05:33:39.755Z,99.00
2023-01-13T05:36:07.596Z,98.50
2023-01-13T05:38:35.108Z,98.60
2023-01-13T05:41:20.857Z,98.50
2023-01-13T05:43:48.239Z,98.40
2023-01-13T05:46:17.771Z,98.60
2023-01-13T05:48:46.006Z,98.70
2023-01-13T05:51:13.790Z,98.90
2023-01-13T05:53:41.529Z,98.90
2023-01-13T05:56:09.939Z,98.80
2023-01-13T05:58:37.887Z,98.90
2023-01-13T06:01:07.612Z,98.90
2023-01-13T06:03:35.340Z,99.10
2023-01-13T06:06:04.154Z,98.70
2023-01-13T06:08:32.474Z,98.80
2023-01-13T06:11:00.058Z,99.30
2023-01-13T06:13:27.747Z,98.70
2023-01-13T06:15:59.274Z,99.10
2023-01-13T06:18:27.548Z,99.60
2023-01-13T06:20:55.192Z,99.10
2023-01-13T06:23:23.361Z,98.80
2023-01-13T06:26:14.692Z,98.80
2023-01-13T06:28:42.233Z,99.10
2023-01-13T06:31:10.910Z,98.60
2023-01-13T06:33:47.088Z,98.90
2023-01-13T06:36:19.627Z,99.60
2023-01-13T06:38:49.848Z,99.00
2023-01-13T06:41:18.338Z,98.80
2023-01-13T06:43:46.692Z,98.20
2023-01-13T06:46:14.141Z,98.00
2023-01-13T06:48:41.605Z,98.30
2023-01-13T06:51:08.980Z,98.30
2023-01-13T06:53:36.480Z,98.00
2023-01-13T06:56:04.013Z,97.90
2023-01-13T06:58:31.381Z,98.00
2023-01-13T07:01:02.120Z,98.10
2023-01-13T07:03:29.701Z,98.90
2023-01-13T07:05:57.303Z,98.30
2023-01-13T07:08:24.961Z,97.80
2023-01-13T07:10:53.245Z,97.80
2023-01-13T07:13:39.378Z,98.00
2023-01-13T07:16:08.373Z,97.70
2023-01-13T07:18:36.732Z,98.40
2023-01-13T07:21:06.799Z,98.60
2023-01-13T07:23:40.163Z,98.50
2023-01-13T07:26:09.573Z,98.80
2023-01-13T07:28:37.719Z,98.20
2023-01-13T07:31:06.422Z,98.30
2023-01-13T07:33:33.914Z,98.30
2023-01-13T07:36:03.523Z,97.60
2023-01-13T07:38:32.142Z,98.10
2023-01-13T07:41:19.698Z,98.00
2023-01-13T07:43:47.546Z,97.60
2023-01-13T07:46:15.292Z,97.40
2023-01-13T07:48:42.781Z,97.70
2023-01-13T07:51:11.875Z,97.60
2023-01-13T07:53:39.331Z,97.90
2023-01-13T07:56:08.098Z,97.50
2023-01-13T07:58:39.089Z,97.20
2023-01-13T08:01:14.234Z,97.20
2023-01-13T08:03:41.729Z,98.20
2023-01-13T08:06:10.632Z,97.10
2023-01-13T08:08:39.170Z,97.20
2023-01-13T08:11:08.450Z,97.50
2023-01-13T08:13:36.335Z,97.30
2023-01-13T08:16:08.011Z,97.30
2023-01-13T08:18:36.727Z,97.40
2023-01-13T08:21:15.015Z,97.40
2023-01-13T08:23:44.570Z,97.60
2023-01-13T08:26:15.037Z,97.60
2023-01-13T08:28:42.607Z,97.50
2023-01-13T08:31:16.537Z,97.80
2023-01-13T08:33:44.813Z,98.20
2023-01-13T08:36:12.663Z,97.50
2023-01-13T08:38:41.405Z,96.80
2023-01-13T08:41:11.678Z,97.10
2023-01-13T08:43:39.146Z,97.00
2023-01-13T08:46:06.985Z,96.90
2023-01-13T08:48:34.561Z,97.20
2023-01-13T08:51:08.133Z,97.00
2023-01-13T08:53:35.777Z,98.10
2023-01-13T08:56:08.415Z,97.40
2023-01-13T08:58:36.065Z,97.90
2023-01-13T09:01:08.520Z,97.50
2023-01-13T09:03:37.311Z,97.90
2023-01-13T09:06:05.216Z,97.20
2023-01-13T09:08:32.676Z,97.20
2023-01-13T09:11:00.321Z,97.40
2023-01-13T09:13:29.038Z,98.00
2023-01-13T09:15:57.043Z,97.60
2023-01-13T09:18:24.770Z,97.20
2023-01-13T09:20:52.605Z,97.00
2023-01-13T09:23:20.194Z,97.30
2023-01-13T09:25:49.161Z,97.60
2023-01-13T09:28:16.627Z,97.90
2023-01-13T09:30:44.225Z,98.80
2023-01-13T09:33:30.115Z,97.90
2023-01-13T09:36:01.316Z,97.50
2023-01-13T09:38:29.144Z,98.30
2023-01-13T09:40:56.635Z,97.70
2023-01-13T09:43:51.936Z,97.60
2023-01-13T09:46:53.540Z,98.00
2023-01-13T09:49:34.457Z,98.50
2023-01-13T09:52:26.782Z,98.40
2023-01-13T09:55:16.293Z,98.40
2023-01-13T09:57:44.138Z,98.00
2023-01-13T10:00:34.162Z,97.60
2023-01-13T10:03:27.159Z,98.20
2023-01-13T10:06:11.973Z,98.20
2023-01-13T10:08:42.606Z,98.20
2023-01-13T10:11:39.276Z,98.90
2023-01-13T10:14:37.864Z,98.20
2023-01-13T10:17:23.807Z,98.40
2023-01-13T10:19:55.601Z,97.50
2023-01-13T10:22:34.875Z,98.60
2023-01-13T10:25:20.477Z,98.50
2023-01-13T10:27:50.760Z,98.90
2023-01-13T10:30:20.987Z,98.30
2023-01-13T10:32:59.991Z,97.90
2023-01-13T10:35:52.343Z,98.80
2023-01-13T10:38:30.832Z,98.80
2023-01-13T10:41:01.420Z,98.30
2023-01-13T10:43:30.858Z,98.30
2023-01-13T10:46:08.748Z,98.30
2023-01-13T10:48:42.102Z,98.00
2023-01-13T10:51:25.358Z,98.90
2023-01-13T10:53:55.659Z,98.90
2023-01-13T10:56:26.232Z,97.20
2023-01-13T10:59:24.670Z,97.90
2023-01-13T11:02:19.710Z,98.10
2023-01-13T11:04:54.788Z,98.50
2023-01-13T11:07:42.035Z,98.70
2023-01-13T11:10:09.514Z,98.20
2023-01-13T11:12:54.495Z,97.70
2023-01-13T11:15:23.748Z,98.70
2023-01-13T11:18:40.348Z,98.50
2023-01-13T11:21:49.652Z,98.40
2023-01-13T11:24:25.728Z,98.80
2023-01-13T11:27:02.107Z,98.40
2023-01-13T11:29:44.471Z,98.80
2023-01-13T11:32:21.382Z,98.90
2023-01-13T11:34:54.551Z,98.90
2023-01-13T11:37:36.313Z,98.70
2023-01-13T11:40:27.178Z,98.00
2023-01-13T11:43:04.553Z,98.30
2023-01-13T11:45:54.780Z,98.40
2023-01-13T11:48:27.128Z,98.30
2023-01-13T11:51:10.825Z,98.30
2023-01-13T11:54:06.904Z,98.10
2023-01-13T11:57:06.071Z,98.30
2023-01-13T12:00:26.500Z,98.50
2023-01-13T12:03:33.718Z,98.40
2023-01-13T12:06:31.719Z,98.10
2023-01-13T12:09:23.560Z,98.20
2023-01-13T12:12:20.156Z,98.10
2023-01-13T12:15:02.996Z,97.80
2023-01-13T12:17:47.577Z,98.10
2023-01-13T12:20:26.841Z,98.20
2023-01-13T12:22:58.077Z,98.50
2023-01-13T12:25:39.613Z,98.00
2023-01-13T12:28:16.595Z,97.60
2023-01-13T12:30:55.105Z,97.90
2023-01-13T12:33:28.171Z,97.70
2023-01-13T12:36:10.356Z,97.20
2023-01-13T12:39:02.418Z,97.20
2023-01-13T12:42:12.876Z,96.90
2023-01-13T12:45:12.390Z,97.00
2023-01-13T12:47:46.261Z,97.20
2023-01-13T12:50:25.898Z,97.30
2023-01-13T12:52:59.149Z,97.20
2023-01-13T12:55:34.244Z,97.40
2023-01-13T12:58:10.917Z,97.40
2023-01-13T13:00:41.512Z,97.50
2023-01-13T13:03:12.397Z,96.90
2023-01-13T13:06:02.888Z,95.90
2023-01-13T13:08:48.941Z,96.40
2023-01-13T13:11:54.355Z,95.80
2023-01-13T13:14:40.192Z,96.80
2023-01-13T13:17:31.436Z,97.00
2023-01-13T13:20:01.569Z,96.80
2023-01-13T13:22:42.285Z,96.50
2023-01-13T13:25:27.866Z,95.80
2023-01-13T13:28:23.207Z,95.90
2023-01-13T13:30:56.412Z,96.60
2023-01-13T13:33:44.240Z,97.00
2023-01-13T13:36:46.519Z,96.90
2023-01-13T13:39:45.836Z,96.30
2023-01-13T13:42:53.664Z,96.90
2023-01-13T13:45:42.569Z,96.30
2023-01-13T13:48:29.268Z,96.30
2023-01-13T13:51:04.095Z,96.80
2023-01-13T13:53:42.056Z,96.40
2023-01-13T13:56:22.989Z,96.50
2023-01-13T13:58:52.321Z,96.50
2023-01-13T14:01:26.900Z,95.80
2023-01-13T14:04:20.938Z,96.40
2023-01-13T14:06:54.227Z,96.50
2023-01-13T14:09:22.923Z,96.20
2023-01-13T14:12:08.138Z,95.90
2023-01-13T14:14:35.626Z,96.10
2023-01-13T14:17:05.015Z,96.10
2023-01-13T14:19:35.432Z,96.10
2023-01-13T14:22:06.175Z,96.00
2023-01-13T14:24:33.926Z,95.70
2023-01-13T14:27:14.714Z,95.30
2023-01-13T14:29:42.405Z,95.50
2023-01-13T14:32:16.016Z,95.30
2023-01-13T14:34:43.517Z,96.10
2023-01-13T14:37:29.338Z,95.30
2023-01-13T14:39:57.260Z,96.00
2023-01-13T14:42:25.436Z,95.10
2023-01-13T14:44:53.046Z,95.30
2023-01-13T14:47:23.723Z,95.20
2023-01-13T14:50:01.139Z,95.00
2023-01-13T14:52:35.451Z,95.80
2023-01-13T14:55:10.103Z,95.90
2023-01-13T14:57:39.621Z,96.40
2023-01-13T15:00:16.853Z,96.60
2023-01-13T15:02:53.844Z,96.60
2023-01-13T15:05:24.024Z,96.50
2023-01-13T15:07:54.624Z,95.30
2023-01-13T15:10:34.335Z,95.70
2023-01-13T15:13:04.353Z,95.90
2023-01-13T15:15:34.660Z,95.80
2023-01-13T15:18:13.856Z,95.70
2023-01-13T15:20:42.369Z,95.40
2023-01-13T15:23:10.511Z,95.40
2023-01-13T15:25:42.834Z,95.30
2023-01-13T15:28:20.541Z,95.50
2023-01-13T15:30:49.937Z,95.70
2023-01-13T15:33:18.387Z,95.50
2023-01-13T15:35:53.479Z,95.40
2023-01-13T15:38:23.586Z,95.90
2023-01-13T15:40:52.433Z,95.40
2023-01-13T15:43:40.626Z,95.30
2023-01-13T15:46:33.707Z,95.40
2023-01-13T15:49:21.852Z,96.00
2023-01-13T15:51:49.874Z,96.00
2023-01-13T15:54:19.885Z,95.60
2023-01-13T15:56:47.551Z,95.20
2023-01-13T15:59:22.201Z,95.40
2023-01-13T16:01:49.601Z,96.00
2023-01-13T16:04:17.235Z,96.50
2023-01-13T16:06:45.280Z,95.70
2023-01-13T16:09:14.042Z,95.60
2023-01-13T16:11:41.733Z,95.70
2023-01-13T16:14:09.160Z,95.60
2023-01-13T16:16:37.331Z,95.70
2023-01-13T16:19:04.823Z,95.70
2023-01-13T16:21:32.206Z,95.50
2023-01-13T16:23:59.710Z,95.60
2023-01-13T16:26:30.203Z,95.60
2023-01-13T16:28:58.473Z,95.90
2023-01-13T16:31:32.321Z,95.80
2023-01-13T16:34:01.319Z,96.10
2023-01-13T16:36:30.602Z,96.10
2023-01-13T16:38:58.131Z,95.80
2023-01-13T16:41:25.704Z,95.60
2023-01-13T16:43:53.369Z,95.50
2023-01-13T16:46:22.512Z,95.50
2023-01-13T16:48:52.324Z,96.00
2023-01-13T16:51:20.946Z,95.70
2023-01-13T16:53:48.532Z,95.50
2023-01-13T16:56:29.396Z,95.30
2023-01-13T16:58:59.306Z,95.00
2023-01-13T17:01:32.477Z,95.70
2023-01-13T17:04:00.676Z,95.90
2023-01-13T17:06:32.369Z,95.50
2023-01-13T17:09:16.985Z,96.20
2023-01-13T17:11:44.544Z,96.50
2023-01-13T17:14:18.277Z,95.80
2023-01-13T17:16:47.541Z,96.00
2023-01-13T17:19:15.252Z,96.10
2023-01-13T17:21:43.113Z,96.10
2023-01-13T17:24:12.457Z,96.20
2023-01-13T17:26:44.177Z,96.20
2023-01-13T17:29:26.672Z,96.60
2023-01-13T17:31:54.425Z,97.00
2023-01-13T17:34:22.235Z,96.00
2023-01-13T17:36:49.867Z,96.80
2023-01-13T17:39:23.667Z,96.40
2023-01-13T17:41:52.516Z,96.60
2023-01-13T17:44:22.003Z,96.80
2023-01-13T17:46:49.524Z,97.50
2023-01-13T17:49:19.293Z,96.80
2023-01-13T17:51:48.236Z,97.10
2023-01-13T17:54:16.005Z,96.80
2023-01-13T17:56:44.331Z,96.80
2023-01-13T17:59:12.487Z,97.10
2023-01-13T18:01:40.794Z,96.90
2023-01-13T18:04:14.850Z,97.00
2023-01-13T18:06:42.518Z,97.20
2023-01-13T18:09:10.293Z,97.00
2023-01-13T18:11:37.936Z,97.10
2023-01-13T18:14:05.480Z,97.10
2023-01-13T18:16:33.263Z,97.20
2023-01-13T18:19:19.135Z,97.40
2023-01-13T18:22:06.101Z,97.10
2023-01-13T18:24:52.686Z,97.40
2023-01-13T18:27:28.193Z,97.50
2023-01-13T18:29:57.906Z,97.70
2023-01-13T18:32:32.681Z,97.40
2023-01-13T18:35:09.784Z,97.60
2023-01-13T18:37:40.342Z,97.90
2023-01-13T18:40:09.894Z,98.10
2023-01-13T18:42:54.187Z,97.60
2023-01-13T18:45:27.555Z,97.40
2023-01-13T18:47:57.125Z,97.50
2023-01-13T18:50:25.434Z,97.60
2023-01-13T18:52:53.010Z,97.20
2023-01-13T18:55:21.269Z,97.60
2023-01-13T18:57:48.931Z,97.80
2023-01-13T19:00:19.674Z,97.60
2023-01-13T19:02:47.864Z,98.00
2023-01-13T19:05:15.540Z,98.00
2023-01-13T19:07:51.521Z,97.80
2023-01-13T19:10:19.655Z,97.80
2023-01-13T19:12:47.112Z,97.80
2023-01-13T19:15:14.818Z,97.80
2023-01-13T19:17:42.412Z,97.80
2023-01-13T19:20:11.327Z,97.90
2023-01-13T19:22:38.961Z,97.60
2023-01-13T19:25:08.023Z,97.60
2023-01-13T19:27:35.478Z,97.30
2023-01-13T19:30:03.611Z,97.70
2023-01-13T19:32:32.753Z,97.80
2023-01-13T19:35:01.030Z,98.20
2023-01-13T19:37:30.398Z,97.80
2023-01-13T19:39:59.230Z,98.20
2023-01-13T19:42:45.629Z,98.20
2023-01-13T19:45:27.711Z,98.10
2023-01-13T19:47:55.908Z,98.20
2023-01-13T19:50:23.719Z,98.30
2023-01-13T19:52:51.389Z,98.20
2023-01-13T19:55:19.776Z,98.30
2023-01-13T19:57:47.646Z,97.80
2023-01-13T20:00:20.413Z,98.10
2023-01-13T20:02:49.602Z,97.90
2023-01-13T20:05:21.466Z,98.00
2023-01-13T20:07:50.264Z,98.00
2023-01-13T20:10:20.291Z,98.00
2023-01-13T20:12:47.978Z,98.40
2023-01-13T20:15:15.891Z,98.10
2023-01-13T20:17:43.365Z,98.00
2023-01-13T20:20:12.019Z,98.70
2023-01-13T20:22:40.019Z,98.00
2023-01-13T20:25:09.420Z,97.90
2023-01-13T20:27:37.025Z,98.40
2023-01-13T20:30:09.535Z,97.80
2023-01-13T20:32:37.377Z,98.10
2023-01-13T20:35:06.116Z,98.40
2023-01-13T20:37:34.775Z,98.10
2023-01-13T20:40:02.261Z,98.80
2023-01-13T20:42:29.763Z,98.10
2023-01-13T20:44:58.418Z,98.40
2023-01-13T20:47:27.048Z,98.40
2023-01-13T20:49:55.704Z,98.30
2023-01-13T20:52:23.260Z,98.30
2023-01-13T20:54:50.687Z,98.30
2023-01-13T20:57:18.254Z,98.50
2023-01-13T20:59:46.067Z,98.20
2023-01-13T21:02:15.452Z,98.50
2023-01-13T21:04:43.465Z,99.00
2023-01-13T21:07:11.105Z,98.40
2023-01-13T21:09:38.609Z,98.60
2023-01-13T21:12:25.492Z,98.30
2023-01-13T21:15:11.892Z,98.50
2023-01-13T21:17:57.635Z,98.20
2023-01-13T21:20:25.027Z,98.10
2023-01-13T21:22:54.086Z,98.20
2023-01-13T21:25:21.474Z,98.00
2023-01-13T21:27:48.913Z,98.20
2023-01-13T21:30:17.614Z,98.00
2023-01-13T21:32:45.974Z,98.50
2023-01-13T21:35:14.859Z,99.00
2023-01-13T21:37:43.720Z,98.70
2023-01-13T21:40:13.841Z,98.50
2023-01-13T21:43:00.139Z,98.80
2023-01-13T21:45:46.011Z,98.40
2023-01-13T21:48:13.431Z,98.30
2023-01-13T21:50:41.234Z,98.40
2023-01-13T21:53:09.273Z,98.50
2023-01-13T21:55:37.592Z,98.50
2023-01-13T21:58:11.642Z,98.60
2023-01-13T22:00:41.060Z,99.30
2023-01-13T22:03:12.131Z,98.90
2023-01-13T22:05:40.342Z,99.70
2023-01-13T22:08:08.124Z,98.70
2023-01-13T22:10:36.167Z,98.60
2023-01-13T22:13:24.051Z,98.70
2023-01-13T22:15:51.959Z,98.50
2023-01-13T22:18:19.374Z,98.50
2023-01-13T22:20:46.856Z,98.80
2023-01-13T22:23:14.368Z,98.50
2023-01-13T22:25:41.982Z,98.40
2023-01-13T22:28:09.523Z,98.40
2023-01-13T22:30:38.947Z,98.30
2023-01-13T22:33:06.573Z,98.00
2023-01-13T22:35:34.112Z,98.60
2023-01-13T22:38:01.584Z,99.00
2023-01-13T22:40:29.157Z,99.00
2023-01-13T22:42:56.839Z,99.30
2023-01-13T22:45:24.334Z,98.50
2023-01-13T22:47:51.808Z,98.40
2023-01-13T22:50:20.992Z,98.60
2023-01-13T22:52:48.604Z,98.70
2023-01-13T22:55:16.179Z,98.30
2023-01-13T22:57:48.184Z,98.20
2023-01-13T23:00:19.150Z,98.20
2023-01-13T23:02:47.255Z,98.70
2023-01-13T23:05:14.857Z,98.60
2023-01-13T23:07:42.418Z,98.70
2023-01-13T23:10:10.510Z,98.50
2023-01-13T23:12:38.211Z,98.50
2023-01-13T23:15:07.917Z,99.20
2023-01-13T23:17:35.583Z,99.50
2023-01-13T23:20:03.550Z,98.60
2023-01-13T23:22:31.090Z,99.20
2023-01-13T23:24:58.650Z,99.00
2023-01-13T23:27:26.183Z,98.70
2023-01-13T23:29:55.465Z,99.20
2023-01-13T23:32:23.943Z,98.60
2023-01-13T23:34:51.380Z,98.40
2023-01-13T23:37:19.027Z,98.70
2023-01-13T23:39:46.806Z,98.70
2023-01-13T23:42:14.381Z,98.90
2023-01-13T23:44:43.172Z,99.10
2023-01-13T23:47:12.146Z,97.50
2023-01-13T23:49:40.624Z,98.30
2023-01-13T23:52:08.247Z,98.40
2023-01-13T23:54:35.848Z,98.30
2023-01-13T23:57:03.431Z,97.80
2023-01-13T23:59:30.959Z,98.70
